sensor_id;sensor_type;location;lat;lon;timestamp;P1;durP1;ratioP1;P2;durP2;ratioP2
23250;SDS011;11794;49.730;10.088;2023-07-30T00:00:41;5.60;;;1.65;;
23250;SDS011;11794;49.730;10.088;2023-07-30T00:03:07;5.90;;;1.67;;
23250;SDS011;11794;49.730;10.088;2023-07-30T00:05:32;5.43;;;1.53;;
23250;SDS011;11794;49.730;10.088;2023-07-30T00:07:58;4.67;;;1.20;;
23250;SDS011;11794;49.730;10.088;2023-07-30T00:10:23;5.97;;;1.70;;
23250;SDS011;11794;49.730;10.088;2023-07-30T00:12:49;8.53;;;1.80;;
23250;SDS011;11794;49.730;10.088;2023-07-30T00:15:14;6.80;;;1.80;;
23250;SDS011;11794;49.730;10.088;2023-07-30T00:17:40;4.78;;;1.40;;
23250;SDS011;11794;49.730;10.088;2023-07-30T00:20:06;4.90;;;1.63;;
23250;SDS011;11794;49.730;10.088;2023-07-30T00:22:33;4.78;;;1.27;;
23250;SDS011;11794;49.730;10.088;2023-07-30T00:24:58;5.90;;;1.40;;
23250;SDS011;11794;49.730;10.088;2023-07-30T00:27:24;5.47;;;1.30;;
23250;SDS011;11794;49.730;10.088;2023-07-30T00:29:49;5.33;;;1.50;;
23250;SDS011;11794;49.730;10.088;2023-07-30T00:32:15;6.90;;;1.50;;
23250;SDS011;11794;49.730;10.088;2023-07-30T00:34:42;4.85;;;1.10;;
23250;SDS011;11794;49.730;10.088;2023-07-30T00:37:08;5.10;;;1.20;;
23250;SDS011;11794;49.730;10.088;2023-07-30T00:39:34;4.43;;;1.30;;
23250;SDS011;11794;49.730;10.088;2023-07-30T00:42:00;3.90;;;1.00;;
23250;SDS011;11794;49.730;10.088;2023-07-30T00:44:25;4.10;;;0.93;;
23250;SDS011;11794;49.730;10.088;2023-07-30T00:46:51;4.80;;;1.20;;
23250;SDS011;11794;49.730;10.088;2023-07-30T00:49:17;5.77;;;1.30;;
23250;SDS011;11794;49.730;10.088;2023-07-30T00:51:43;4.30;;;1.00;;
23250;SDS011;11794;49.730;10.088;2023-07-30T00:54:09;4.28;;;1.20;;
23250;SDS011;11794;49.730;10.088;2023-07-30T00:56:35;5.38;;;1.38;;
23250;SDS011;11794;49.730;10.088;2023-07-30T00:59:01;5.73;;;1.20;;
23250;SDS011;11794;49.730;10.088;2023-07-30T01:01:27;4.45;;;0.90;;
23250;SDS011;11794;49.730;10.088;2023-07-30T01:03:53;4.85;;;1.00;;
23250;SDS011;11794;49.730;10.088;2023-07-30T01:06:19;5.53;;;1.17;;
23250;SDS011;11794;49.730;10.088;2023-07-30T01:08:45;4.53;;;0.90;;
23250;SDS011;11794;49.730;10.088;2023-07-30T01:11:11;4.95;;;0.93;;
23250;SDS011;11794;49.730;10.088;2023-07-30T01:13:39;6.05;;;0.68;;
23250;SDS011;11794;49.730;10.088;2023-07-30T01:16:06;4.50;;;0.80;;
23250;SDS011;11794;49.730;10.088;2023-07-30T01:18:32;4.93;;;0.88;;
23250;SDS011;11794;49.730;10.088;2023-07-30T01:20:58;4.63;;;0.80;;
23250;SDS011;11794;49.730;10.088;2023-07-30T01:23:24;4.28;;;1.00;;
23250;SDS011;11794;49.730;10.088;2023-07-30T01:25:51;6.25;;;0.90;;
23250;SDS011;11794;49.730;10.088;2023-07-30T01:28:29;4.37;;;0.83;;
23250;SDS011;11794;49.730;10.088;2023-07-30T01:31:01;4.40;;;0.80;;
23250;SDS011;11794;49.730;10.088;2023-07-30T01:33:29;5.95;;;1.05;;
23250;SDS011;11794;49.730;10.088;2023-07-30T01:35:55;5.63;;;1.40;;
23250;SDS011;11794;49.730;10.088;2023-07-30T01:38:22;5.60;;;1.35;;
23250;SDS011;11794;49.730;10.088;2023-07-30T01:40:48;5.35;;;1.35;;
23250;SDS011;11794;49.730;10.088;2023-07-30T01:43:14;4.40;;;1.10;;
23250;SDS011;11794;49.730;10.088;2023-07-30T01:45:39;4.70;;;1.30;;
23250;SDS011;11794;49.730;10.088;2023-07-30T01:48:05;5.20;;;1.30;;
23250;SDS011;11794;49.730;10.088;2023-07-30T01:50:31;6.77;;;1.60;;
23250;SDS011;11794;49.730;10.088;2023-07-30T01:52:56;4.70;;;1.40;;
23250;SDS011;11794;49.730;10.088;2023-07-30T01:55:22;5.78;;;1.58;;
23250;SDS011;11794;49.730;10.088;2023-07-30T01:57:47;6.00;;;1.50;;
23250;SDS011;11794;49.730;10.088;2023-07-30T02:00:13;6.03;;;1.97;;
23250;SDS011;11794;49.730;10.088;2023-07-30T02:02:39;7.80;;;1.73;;
23250;SDS011;11794;49.730;10.088;2023-07-30T02:05:04;5.60;;;1.90;;
23250;SDS011;11794;49.730;10.088;2023-07-30T02:07:30;5.35;;;1.60;;
23250;SDS011;11794;49.730;10.088;2023-07-30T02:09:56;4.93;;;1.60;;
23250;SDS011;11794;49.730;10.088;2023-07-30T02:12:21;6.53;;;1.80;;
23250;SDS011;11794;49.730;10.088;2023-07-30T02:14:47;6.97;;;2.00;;
23250;SDS011;11794;49.730;10.088;2023-07-30T02:17:12;5.40;;;1.70;;
23250;SDS011;11794;49.730;10.088;2023-07-30T02:19:38;5.75;;;1.98;;
23250;SDS011;11794;49.730;10.088;2023-07-30T02:22:03;5.43;;;2.00;;
23250;SDS011;11794;49.730;10.088;2023-07-30T02:24:29;5.43;;;2.00;;
23250;SDS011;11794;49.730;10.088;2023-07-30T02:26:55;8.77;;;2.40;;
23250;SDS011;11794;49.730;10.088;2023-07-30T02:29:20;6.80;;;2.30;;
23250;SDS011;11794;49.730;10.088;2023-07-30T02:31:46;6.93;;;1.98;;
23250;SDS011;11794;49.730;10.088;2023-07-30T02:34:11;5.70;;;2.00;;
23250;SDS011;11794;49.730;10.088;2023-07-30T02:36:36;6.60;;;2.20;;
23250;SDS011;11794;49.730;10.088;2023-07-30T02:39:02;6.53;;;2.30;;
23250;SDS011;11794;49.730;10.088;2023-07-30T02:41:28;6.23;;;2.10;;
23250;SDS011;11794;49.730;10.088;2023-07-30T02:43:53;7.55;;;2.13;;
23250;SDS011;11794;49.730;10.088;2023-07-30T02:46:18;6.70;;;2.30;;
23250;SDS011;11794;49.730;10.088;2023-07-30T02:48:44;6.90;;;2.20;;
23250;SDS011;11794;49.730;10.088;2023-07-30T02:51:11;5.68;;;2.13;;
23250;SDS011;11794;49.730;10.088;2023-07-30T02:53:36;8.67;;;2.37;;
23250;SDS011;11794;49.730;10.088;2023-07-30T02:56:02;5.78;;;1.98;;
23250;SDS011;11794;49.730;10.088;2023-07-30T02:58:27;6.67;;;2.30;;
23250;SDS011;11794;49.730;10.088;2023-07-30T03:00:53;6.27;;;2.30;;
23250;SDS011;11794;49.730;10.088;2023-07-30T03:03:18;5.32;;;2.10;;
23250;SDS011;11794;49.730;10.088;2023-07-30T03:05:44;6.10;;;2.10;;
23250;SDS011;11794;49.730;10.088;2023-07-30T03:08:09;5.57;;;2.30;;
23250;SDS011;11794;49.730;10.088;2023-07-30T03:10:37;5.57;;;2.30;;
23250;SDS011;11794;49.730;10.088;2023-07-30T03:13:03;6.60;;;2.50;;
23250;SDS011;11794;49.730;10.088;2023-07-30T03:15:29;6.30;;;2.43;;
23250;SDS011;11794;49.730;10.088;2023-07-30T03:17:54;5.87;;;2.20;;
23250;SDS011;11794;49.730;10.088;2023-07-30T03:20:20;7.53;;;2.20;;
23250;SDS011;11794;49.730;10.088;2023-07-30T03:22:45;7.37;;;2.83;;
23250;SDS011;11794;49.730;10.088;2023-07-30T03:25:11;8.50;;;2.23;;
23250;SDS011;11794;49.730;10.088;2023-07-30T03:27:36;8.57;;;2.80;;
23250;SDS011;11794;49.730;10.088;2023-07-30T03:30:02;6.93;;;2.80;;
23250;SDS011;11794;49.730;10.088;2023-07-30T03:32:27;8.38;;;2.65;;
23250;SDS011;11794;49.730;10.088;2023-07-30T03:34:53;6.43;;;2.40;;
23250;SDS011;11794;49.730;10.088;2023-07-30T03:37:18;6.40;;;2.37;;
23250;SDS011;11794;49.730;10.088;2023-07-30T03:39:44;7.30;;;2.90;;
23250;SDS011;11794;49.730;10.088;2023-07-30T03:42:09;6.70;;;2.77;;
23250;SDS011;11794;49.730;10.088;2023-07-30T03:44:35;5.90;;;2.43;;
23250;SDS011;11794;49.730;10.088;2023-07-30T03:47:01;6.18;;;2.30;;
23250;SDS011;11794;49.730;10.088;2023-07-30T03:49:26;6.03;;;2.30;;
23250;SDS011;11794;49.730;10.088;2023-07-30T03:51:52;6.60;;;2.80;;
23250;SDS011;11794;49.730;10.088;2023-07-30T03:54:17;5.93;;;2.30;;
23250;SDS011;11794;49.730;10.088;2023-07-30T03:56:43;6.78;;;2.88;;
23250;SDS011;11794;49.730;10.088;2023-07-30T03:59:08;5.60;;;2.23;;
23250;SDS011;11794;49.730;10.088;2023-07-30T04:01:34;5.50;;;2.30;;
23250;SDS011;11794;49.730;10.088;2023-07-30T04:03:59;6.05;;;2.50;;
23250;SDS011;11794;49.730;10.088;2023-07-30T04:06:25;6.53;;;2.37;;
23250;SDS011;11794;49.730;10.088;2023-07-30T04:08:50;5.80;;;2.13;;
23250;SDS011;11794;49.730;10.088;2023-07-30T04:11:16;5.97;;;2.58;;
23250;SDS011;11794;49.730;10.088;2023-07-30T04:13:41;8.97;;;2.40;;
23250;SDS011;11794;49.730;10.088;2023-07-30T04:16:07;6.87;;;2.37;;
23250;SDS011;11794;49.730;10.088;2023-07-30T04:18:32;5.35;;;2.15;;
23250;SDS011;11794;49.730;10.088;2023-07-30T04:20:58;5.40;;;2.30;;
23250;SDS011;11794;49.730;10.088;2023-07-30T04:23:23;6.72;;;2.35;;
23250;SDS011;11794;49.730;10.088;2023-07-30T04:25:49;6.90;;;2.20;;
23250;SDS011;11794;49.730;10.088;2023-07-30T04:28:15;6.25;;;2.40;;
23250;SDS011;11794;49.730;10.088;2023-07-30T04:30:41;7.27;;;2.27;;
23250;SDS011;11794;49.730;10.088;2023-07-30T04:33:06;6.55;;;2.20;;
23250;SDS011;11794;49.730;10.088;2023-07-30T04:35:32;5.90;;;2.10;;
23250;SDS011;11794;49.730;10.088;2023-07-30T04:37:57;5.38;;;2.00;;
23250;SDS011;11794;49.730;10.088;2023-07-30T04:40:23;6.00;;;2.30;;
23250;SDS011;11794;49.730;10.088;2023-07-30T04:42:49;5.00;;;2.07;;
23250;SDS011;11794;49.730;10.088;2023-07-30T04:45:14;5.88;;;2.40;;
23250;SDS011;11794;49.730;10.088;2023-07-30T04:47:40;8.20;;;2.37;;
23250;SDS011;11794;49.730;10.088;2023-07-30T04:50:05;6.30;;;2.20;;
23250;SDS011;11794;49.730;10.088;2023-07-30T04:52:31;7.53;;;2.35;;
23250;SDS011;11794;49.730;10.088;2023-07-30T04:54:56;5.40;;;2.27;;
23250;SDS011;11794;49.730;10.088;2023-07-30T04:57:22;5.65;;;2.38;;
23250;SDS011;11794;49.730;10.088;2023-07-30T04:59:48;8.47;;;2.20;;
23250;SDS011;11794;49.730;10.088;2023-07-30T05:02:13;6.10;;;2.10;;
23250;SDS011;11794;49.730;10.088;2023-07-30T05:04:39;6.70;;;2.28;;
23250;SDS011;11794;49.730;10.088;2023-07-30T05:07:04;5.50;;;1.90;;
23250;SDS011;11794;49.730;10.088;2023-07-30T05:09:30;5.57;;;1.80;;
23250;SDS011;11794;49.730;10.088;2023-07-30T05:11:55;5.23;;;2.00;;
23250;SDS011;11794;49.730;10.088;2023-07-30T05:14:21;5.53;;;2.17;;
23250;SDS011;11794;49.730;10.088;2023-07-30T05:16:46;6.13;;;2.10;;
23250;SDS011;11794;49.730;10.088;2023-07-30T05:19:12;9.23;;;2.00;;
23250;SDS011;11794;49.730;10.088;2023-07-30T05:21:37;7.00;;;1.97;;
23250;SDS011;11794;49.730;10.088;2023-07-30T05:24:03;5.70;;;2.13;;
23250;SDS011;11794;49.730;10.088;2023-07-30T05:26:29;5.53;;;1.85;;
23250;SDS011;11794;49.730;10.088;2023-07-30T05:28:54;6.37;;;2.10;;
23250;SDS011;11794;49.730;10.088;2023-07-30T05:31:20;6.35;;;1.63;;
23250;SDS011;11794;49.730;10.088;2023-07-30T05:33:45;4.70;;;1.60;;
23250;SDS011;11794;49.730;10.088;2023-07-30T05:36:11;5.87;;;1.73;;
23250;SDS011;11794;49.730;10.088;2023-07-30T05:38:37;5.97;;;2.00;;
23250;SDS011;11794;49.730;10.088;2023-07-30T05:41:02;5.30;;;1.70;;
23250;SDS011;11794;49.730;10.088;2023-07-30T05:43:28;5.20;;;1.70;;
23250;SDS011;11794;49.730;10.088;2023-07-30T05:45:53;5.10;;;1.60;;
23250;SDS011;11794;49.730;10.088;2023-07-30T05:48:18;6.57;;;1.73;;
23250;SDS011;11794;49.730;10.088;2023-07-30T05:50:44;5.30;;;1.60;;
23250;SDS011;11794;49.730;10.088;2023-07-30T05:53:09;4.87;;;1.50;;
23250;SDS011;11794;49.730;10.088;2023-07-30T05:55:35;5.93;;;1.97;;
23250;SDS011;11794;49.730;10.088;2023-07-30T05:58:01;5.20;;;1.40;;
23250;SDS011;11794;49.730;10.088;2023-07-30T06:00:26;4.68;;;1.50;;
23250;SDS011;11794;49.730;10.088;2023-07-30T06:02:52;5.83;;;1.37;;
23250;SDS011;11794;49.730;10.088;2023-07-30T06:05:17;4.80;;;1.50;;
23250;SDS011;11794;49.730;10.088;2023-07-30T06:07:43;7.60;;;1.85;;
23250;SDS011;11794;49.730;10.088;2023-07-30T06:10:08;5.23;;;1.80;;
23250;SDS011;11794;49.730;10.088;2023-07-30T06:12:34;7.00;;;1.55;;
23250;SDS011;11794;49.730;10.088;2023-07-30T06:14:59;5.30;;;1.80;;
23250;SDS011;11794;49.730;10.088;2023-07-30T06:17:25;7.23;;;1.70;;
23250;SDS011;11794;49.730;10.088;2023-07-30T06:19:50;4.88;;;1.60;;
23250;SDS011;11794;49.730;10.088;2023-07-30T06:22:16;6.63;;;1.80;;
23250;SDS011;11794;49.730;10.088;2023-07-30T06:24:41;5.10;;;1.50;;
23250;SDS011;11794;49.730;10.088;2023-07-30T06:27:07;6.22;;;2.00;;
23250;SDS011;11794;49.730;10.088;2023-07-30T06:29:34;5.63;;;2.30;;
23250;SDS011;11794;49.730;10.088;2023-07-30T06:32:00;7.20;;;2.10;;
23250;SDS011;11794;49.730;10.088;2023-07-30T06:34:26;6.47;;;1.92;;
23250;SDS011;11794;49.730;10.088;2023-07-30T06:36:51;5.07;;;1.77;;
23250;SDS011;11794;49.730;10.088;2023-07-30T06:39:17;4.90;;;1.73;;
23250;SDS011;11794;49.730;10.088;2023-07-30T06:41:42;5.60;;;1.65;;
23250;SDS011;11794;49.730;10.088;2023-07-30T06:44:08;4.67;;;1.50;;
23250;SDS011;11794;49.730;10.088;2023-07-30T06:46:33;4.72;;;1.35;;
23250;SDS011;11794;49.730;10.088;2023-07-30T06:48:59;5.43;;;1.50;;
23250;SDS011;11794;49.730;10.088;2023-07-30T06:51:24;4.50;;;1.30;;
23250;SDS011;11794;49.730;10.088;2023-07-30T06:53:50;4.63;;;1.30;;
23250;SDS011;11794;49.730;10.088;2023-07-30T06:56:16;5.07;;;1.47;;
23250;SDS011;11794;49.730;10.088;2023-07-30T06:58:41;5.00;;;1.38;;
23250;SDS011;11794;49.730;10.088;2023-07-30T07:01:07;4.50;;;1.60;;
23250;SDS011;11794;49.730;10.088;2023-07-30T07:03:32;4.40;;;1.40;;
23250;SDS011;11794;49.730;10.088;2023-07-30T07:05:58;5.53;;;1.42;;
23250;SDS011;11794;49.730;10.088;2023-07-30T07:08:24;5.77;;;1.27;;
23250;SDS011;11794;49.730;10.088;2023-07-30T07:10:49;4.97;;;1.52;;
23250;SDS011;11794;49.730;10.088;2023-07-30T07:13:15;4.33;;;1.40;;
23250;SDS011;11794;49.730;10.088;2023-07-30T07:15:41;4.47;;;1.40;;
23250;SDS011;11794;49.730;10.088;2023-07-30T07:18:07;3.97;;;1.25;;
23250;SDS011;11794;49.730;10.088;2023-07-30T07:20:33;5.63;;;1.55;;
23250;SDS011;11794;49.730;10.088;2023-07-30T07:22:58;4.30;;;1.20;;
23250;SDS011;11794;49.730;10.088;2023-07-30T07:25:24;4.20;;;1.30;;
23250;SDS011;11794;49.730;10.088;2023-07-30T07:27:50;4.43;;;1.20;;
23250;SDS011;11794;49.730;10.088;2023-07-30T07:30:15;3.70;;;1.10;;
23250;SDS011;11794;49.730;10.088;2023-07-30T07:32:41;4.13;;;1.23;;
23250;SDS011;11794;49.730;10.088;2023-07-30T07:35:06;4.47;;;1.10;;
23250;SDS011;11794;49.730;10.088;2023-07-30T07:37:33;3.30;;;1.17;;
23250;SDS011;11794;49.730;10.088;2023-07-30T07:39:58;5.70;;;1.42;;
23250;SDS011;11794;49.730;10.088;2023-07-30T07:42:24;4.57;;;1.60;;
23250;SDS011;11794;49.730;10.088;2023-07-30T07:44:49;4.33;;;1.40;;
23250;SDS011;11794;49.730;10.088;2023-07-30T07:47:15;5.38;;;1.58;;
23250;SDS011;11794;49.730;10.088;2023-07-30T07:49:40;4.53;;;1.30;;
23250;SDS011;11794;49.730;10.088;2023-07-30T07:52:06;5.13;;;1.30;;
23250;SDS011;11794;49.730;10.088;2023-07-30T07:54:32;5.37;;;1.50;;
23250;SDS011;11794;49.730;10.088;2023-07-30T07:56:57;4.80;;;1.20;;
23250;SDS011;11794;49.730;10.088;2023-07-30T07:59:23;4.73;;;1.30;;
23250;SDS011;11794;49.730;10.088;2023-07-30T08:01:49;4.35;;;1.40;;
23250;SDS011;11794;49.730;10.088;2023-07-30T08:04:14;3.57;;;1.10;;
23250;SDS011;11794;49.730;10.088;2023-07-30T08:06:40;4.03;;;1.40;;
23250;SDS011;11794;49.730;10.088;2023-07-30T08:09:06;7.13;;;1.50;;
23250;SDS011;11794;49.730;10.088;2023-07-30T08:11:31;4.38;;;1.33;;
23250;SDS011;11794;49.730;10.088;2023-07-30T08:13:57;5.63;;;1.10;;
23250;SDS011;11794;49.730;10.088;2023-07-30T08:16:22;4.37;;;1.00;;
23250;SDS011;11794;49.730;10.088;2023-07-30T08:18:48;3.72;;;1.02;;
23250;SDS011;11794;49.730;10.088;2023-07-30T08:21:14;8.50;;;1.37;;
23250;SDS011;11794;49.730;10.088;2023-07-30T08:23:42;4.60;;;1.37;;
23250;SDS011;11794;49.730;10.088;2023-07-30T08:26:08;3.45;;;0.90;;
23250;SDS011;11794;49.730;10.088;2023-07-30T08:28:33;3.87;;;1.10;;
23250;SDS011;11794;49.730;10.088;2023-07-30T08:30:59;5.07;;;1.00;;
23250;SDS011;11794;49.730;10.088;2023-07-30T08:33:26;5.07;;;1.60;;
23250;SDS011;11794;49.730;10.088;2023-07-30T08:35:54;4.13;;;1.10;;
23250;SDS011;11794;49.730;10.088;2023-07-30T08:38:21;4.38;;;1.30;;
23250;SDS011;11794;49.730;10.088;2023-07-30T08:40:46;3.40;;;1.07;;
23250;SDS011;11794;49.730;10.088;2023-07-30T08:43:12;3.83;;;1.10;;
23250;SDS011;11794;49.730;10.088;2023-07-30T08:45:38;5.13;;;1.30;;
23250;SDS011;11794;49.730;10.088;2023-07-30T08:48:03;3.17;;;0.67;;
23250;SDS011;11794;49.730;10.088;2023-07-30T08:50:29;3.93;;;1.00;;
23250;SDS011;11794;49.730;10.088;2023-07-30T08:52:55;3.70;;;0.90;;
23250;SDS011;11794;49.730;10.088;2023-07-30T08:55:22;3.53;;;0.98;;
23250;SDS011;11794;49.730;10.088;2023-07-30T08:57:49;4.82;;;1.00;;
23250;SDS011;11794;49.730;10.088;2023-07-30T09:00:17;4.72;;;0.90;;
23250;SDS011;11794;49.730;10.088;2023-07-30T09:02:48;3.60;;;1.00;;
23250;SDS011;11794;49.730;10.088;2023-07-30T09:05:16;3.05;;;0.60;;
23250;SDS011;11794;49.730;10.088;2023-07-30T09:07:43;2.88;;;0.60;;
23250;SDS011;11794;49.730;10.088;2023-07-30T09:10:09;2.97;;;0.67;;
23250;SDS011;11794;49.730;10.088;2023-07-30T09:12:35;4.20;;;1.00;;
23250;SDS011;11794;49.730;10.088;2023-07-30T09:15:04;3.33;;;0.80;;
23250;SDS011;11794;49.730;10.088;2023-07-30T09:17:31;3.33;;;0.77;;
23250;SDS011;11794;49.730;10.088;2023-07-30T09:19:58;3.63;;;0.90;;
23250;SDS011;11794;49.730;10.088;2023-07-30T09:22:29;3.72;;;1.23;;
23250;SDS011;11794;49.730;10.088;2023-07-30T09:24:58;3.15;;;0.80;;
23250;SDS011;11794;49.730;10.088;2023-07-30T09:27:27;3.95;;;0.98;;
23250;SDS011;11794;49.730;10.088;2023-07-30T09:29:53;6.05;;;0.90;;
23250;SDS011;11794;49.730;10.088;2023-07-30T09:32:27;4.27;;;0.70;;
23250;SDS011;11794;49.730;10.088;2023-07-30T09:35:03;3.60;;;0.87;;
23250;SDS011;11794;49.730;10.088;2023-07-30T09:37:35;3.33;;;1.00;;
23250;SDS011;11794;49.730;10.088;2023-07-30T09:40:04;4.90;;;1.10;;
23250;SDS011;11794;49.730;10.088;2023-07-30T09:42:34;4.03;;;1.00;;
23250;SDS011;11794;49.730;10.088;2023-07-30T09:45:04;4.70;;;0.85;;
23250;SDS011;11794;49.730;10.088;2023-07-30T09:47:32;3.15;;;0.80;;
23250;SDS011;11794;49.730;10.088;2023-07-30T09:49:59;4.43;;;1.00;;
23250;SDS011;11794;49.730;10.088;2023-07-30T09:52:24;4.47;;;1.08;;
23250;SDS011;11794;49.730;10.088;2023-07-30T09:54:50;3.60;;;0.90;;
23250;SDS011;11794;49.730;10.088;2023-07-30T09:57:17;4.03;;;0.98;;
23250;SDS011;11794;49.730;10.088;2023-07-30T09:59:43;4.13;;;1.00;;
23250;SDS011;11794;49.730;10.088;2023-07-30T10:02:08;4.22;;;1.00;;
23250;SDS011;11794;49.730;10.088;2023-07-30T10:04:37;3.83;;;0.93;;
23250;SDS011;11794;49.730;10.088;2023-07-30T10:07:08;3.72;;;0.90;;
23250;SDS011;11794;49.730;10.088;2023-07-30T10:09:40;3.77;;;0.93;;
23250;SDS011;11794;49.730;10.088;2023-07-30T10:12:31;3.67;;;0.90;;
23250;SDS011;11794;49.730;10.088;2023-07-30T10:14:58;3.63;;;1.15;;
23250;SDS011;11794;49.730;10.088;2023-07-30T10:17:25;3.53;;;0.90;;
23250;SDS011;11794;49.730;10.088;2023-07-30T10:19:50;5.38;;;1.00;;
23250;SDS011;11794;49.730;10.088;2023-07-30T10:22:20;3.50;;;0.77;;
23250;SDS011;11794;49.730;10.088;2023-07-30T10:25:01;3.50;;;0.90;;
23250;SDS011;11794;49.730;10.088;2023-07-30T10:27:40;4.65;;;1.00;;
23250;SDS011;11794;49.730;10.088;2023-07-30T10:30:12;2.80;;;0.63;;
23250;SDS011;11794;49.730;10.088;2023-07-30T10:32:39;4.03;;;0.95;;
23250;SDS011;11794;49.730;10.088;2023-07-30T10:35:07;3.03;;;0.80;;
23250;SDS011;11794;49.730;10.088;2023-07-30T10:37:32;4.80;;;1.10;;
23250;SDS011;11794;49.730;10.088;2023-07-30T10:39:58;3.85;;;0.90;;
23250;SDS011;11794;49.730;10.088;2023-07-30T10:42:23;3.67;;;0.90;;
23250;SDS011;11794;49.730;10.088;2023-07-30T10:44:57;3.13;;;0.93;;
23250;SDS011;11794;49.730;10.088;2023-07-30T10:47:26;3.60;;;1.00;;
23250;SDS011;11794;49.730;10.088;2023-07-30T10:49:52;4.50;;;1.00;;
23250;SDS011;11794;49.730;10.088;2023-07-30T10:52:18;3.95;;;1.20;;
23250;SDS011;11794;49.730;10.088;2023-07-30T10:54:48;4.57;;;1.15;;
23250;SDS011;11794;49.730;10.088;2023-07-30T10:57:14;4.77;;;1.50;;
23250;SDS011;11794;49.730;10.088;2023-07-30T10:59:40;4.85;;;1.45;;
23250;SDS011;11794;49.730;10.088;2023-07-30T11:02:06;4.30;;;1.40;;
23250;SDS011;11794;49.730;10.088;2023-07-30T11:04:34;5.50;;;1.30;;
23250;SDS011;11794;49.730;10.088;2023-07-30T11:07:00;3.90;;;1.17;;
23250;SDS011;11794;49.730;10.088;2023-07-30T11:09:26;4.55;;;1.35;;
23250;SDS011;11794;49.730;10.088;2023-07-30T11:11:53;4.07;;;1.20;;
23250;SDS011;11794;49.730;10.088;2023-07-30T11:14:21;4.25;;;1.20;;
23250;SDS011;11794;49.730;10.088;2023-07-30T11:16:51;4.47;;;1.30;;
23250;SDS011;11794;49.730;10.088;2023-07-30T11:19:23;3.83;;;1.27;;
23250;SDS011;11794;49.730;10.088;2023-07-30T11:21:49;4.63;;;1.20;;
23250;SDS011;11794;49.730;10.088;2023-07-30T11:24:16;4.43;;;1.27;;
23250;SDS011;11794;49.730;10.088;2023-07-30T11:26:42;5.47;;;1.58;;
23250;SDS011;11794;49.730;10.088;2023-07-30T11:29:17;4.10;;;1.10;;
23250;SDS011;11794;49.730;10.088;2023-07-30T11:31:45;3.90;;;1.07;;
23250;SDS011;11794;49.730;10.088;2023-07-30T11:34:12;4.43;;;1.17;;
23250;SDS011;11794;49.730;10.088;2023-07-30T11:36:39;4.57;;;0.90;;
23250;SDS011;11794;49.730;10.088;2023-07-30T11:39:06;5.15;;;1.38;;
23250;SDS011;11794;49.730;10.088;2023-07-30T11:41:32;4.10;;;1.23;;
23250;SDS011;11794;49.730;10.088;2023-07-30T11:43:58;4.05;;;1.10;;
23250;SDS011;11794;49.730;10.088;2023-07-30T11:46:24;5.33;;;1.30;;
23250;SDS011;11794;49.730;10.088;2023-07-30T11:48:50;4.95;;;1.20;;
23250;SDS011;11794;49.730;10.088;2023-07-30T11:51:21;4.70;;;1.33;;
23250;SDS011;11794;49.730;10.088;2023-07-30T11:53:58;4.70;;;0.90;;
23250;SDS011;11794;49.730;10.088;2023-07-30T11:56:26;4.57;;;0.80;;
23250;SDS011;11794;49.730;10.088;2023-07-30T11:58:55;4.53;;;0.90;;
23250;SDS011;11794;49.730;10.088;2023-07-30T12:01:25;3.55;;;0.90;;
23250;SDS011;11794;49.730;10.088;2023-07-30T12:03:55;4.22;;;0.80;;
23250;SDS011;11794;49.730;10.088;2023-07-30T12:06:21;2.90;;;0.75;;
23250;SDS011;11794;49.730;10.088;2023-07-30T12:08:48;2.60;;;0.50;;
23250;SDS011;11794;49.730;10.088;2023-07-30T12:11:14;3.10;;;0.70;;
23250;SDS011;11794;49.730;10.088;2023-07-30T12:13:43;2.03;;;0.50;;
23250;SDS011;11794;49.730;10.088;2023-07-30T12:16:15;3.17;;;0.60;;
23250;SDS011;11794;49.730;10.088;2023-07-30T12:18:40;3.30;;;0.60;;
23250;SDS011;11794;49.730;10.088;2023-07-30T12:21:06;2.57;;;0.60;;
23250;SDS011;11794;49.730;10.088;2023-07-30T12:23:33;1.85;;;0.43;;
23250;SDS011;11794;49.730;10.088;2023-07-30T12:25:59;2.80;;;0.50;;
23250;SDS011;11794;49.730;10.088;2023-07-30T12:28:25;2.50;;;0.50;;
23250;SDS011;11794;49.730;10.088;2023-07-30T12:30:50;1.60;;;0.43;;
23250;SDS011;11794;49.730;10.088;2023-07-30T12:33:16;3.07;;;0.50;;
23250;SDS011;11794;49.730;10.088;2023-07-30T12:35:41;2.50;;;0.60;;
23250;SDS011;11794;49.730;10.088;2023-07-30T12:38:07;4.40;;;0.50;;
23250;SDS011;11794;49.730;10.088;2023-07-30T12:40:33;2.47;;;0.60;;
23250;SDS011;11794;49.730;10.088;2023-07-30T12:43:00;3.83;;;0.60;;
23250;SDS011;11794;49.730;10.088;2023-07-30T12:45:29;3.65;;;0.60;;
23250;SDS011;11794;49.730;10.088;2023-07-30T12:47:55;2.55;;;0.50;;
23250;SDS011;11794;49.730;10.088;2023-07-30T12:50:20;2.58;;;0.60;;
23250;SDS011;11794;49.730;10.088;2023-07-30T12:52:46;2.77;;;0.63;;
23250;SDS011;11794;49.730;10.088;2023-07-30T12:55:11;5.60;;;0.65;;
23250;SDS011;11794;49.730;10.088;2023-07-30T12:57:37;4.57;;;0.70;;
23250;SDS011;11794;49.730;10.088;2023-07-30T13:00:02;3.47;;;0.50;;
23250;SDS011;11794;49.730;10.088;2023-07-30T13:02:29;1.65;;;0.40;;
23250;SDS011;11794;49.730;10.088;2023-07-30T13:04:58;2.45;;;0.60;;
23250;SDS011;11794;49.730;10.088;2023-07-30T13:07:24;2.20;;;0.40;;
23250;SDS011;11794;49.730;10.088;2023-07-30T13:09:51;3.47;;;0.70;;
23250;SDS011;11794;49.730;10.088;2023-07-30T13:12:33;5.38;;;0.60;;
23250;SDS011;11794;49.730;10.088;2023-07-30T13:14:59;3.17;;;0.75;;
23250;SDS011;11794;49.730;10.088;2023-07-30T13:17:25;3.15;;;0.70;;
23250;SDS011;11794;49.730;10.088;2023-07-30T13:19:50;3.73;;;0.60;;
23250;SDS011;11794;49.730;10.088;2023-07-30T13:22:16;3.15;;;0.60;;
23250;SDS011;11794;49.730;10.088;2023-07-30T13:24:42;2.57;;;0.40;;
23250;SDS011;11794;49.730;10.088;2023-07-30T13:27:07;4.70;;;0.70;;
23250;SDS011;11794;49.730;10.088;2023-07-30T13:29:33;3.30;;;0.70;;
23250;SDS011;11794;49.730;10.088;2023-07-30T13:31:58;3.50;;;0.63;;
23250;SDS011;11794;49.730;10.088;2023-07-30T13:34:24;2.60;;;0.53;;
23250;SDS011;11794;49.730;10.088;2023-07-30T13:36:49;2.70;;;0.55;;
23250;SDS011;11794;49.730;10.088;2023-07-30T13:39:15;3.17;;;0.60;;
23250;SDS011;11794;49.730;10.088;2023-07-30T13:41:40;3.40;;;0.77;;
23250;SDS011;11794;49.730;10.088;2023-07-30T13:44:06;5.70;;;0.60;;
23250;SDS011;11794;49.730;10.088;2023-07-30T13:46:32;3.78;;;0.65;;
23250;SDS011;11794;49.730;10.088;2023-07-30T13:48:57;5.07;;;0.63;;
23250;SDS011;11794;49.730;10.088;2023-07-30T13:51:23;2.83;;;0.52;;
23250;SDS011;11794;49.730;10.088;2023-07-30T13:53:48;4.27;;;0.60;;
23250;SDS011;11794;49.730;10.088;2023-07-30T13:56:14;3.57;;;0.60;;
23250;SDS011;11794;49.730;10.088;2023-07-30T13:58:39;4.57;;;0.60;;
23250;SDS011;11794;49.730;10.088;2023-07-30T14:01:05;3.83;;;0.70;;
23250;SDS011;11794;49.730;10.088;2023-07-30T14:03:31;5.50;;;0.77;;
23250;SDS011;11794;49.730;10.088;2023-07-30T14:05:57;3.30;;;0.60;;
23250;SDS011;11794;49.730;10.088;2023-07-30T14:08:23;3.75;;;0.73;;
23250;SDS011;11794;49.730;10.088;2023-07-30T14:10:48;4.33;;;0.73;;
23250;SDS011;11794;49.730;10.088;2023-07-30T14:13:14;3.83;;;0.60;;
23250;SDS011;11794;49.730;10.088;2023-07-30T14:15:40;3.20;;;0.70;;
23250;SDS011;11794;49.730;10.088;2023-07-30T14:18:06;3.10;;;0.60;;
23250;SDS011;11794;49.730;10.088;2023-07-30T14:20:31;4.43;;;0.80;;
23250;SDS011;11794;49.730;10.088;2023-07-30T14:22:57;4.53;;;0.80;;
23250;SDS011;11794;49.730;10.088;2023-07-30T14:25:26;3.17;;;0.70;;
23250;SDS011;11794;49.730;10.088;2023-07-30T14:27:52;3.93;;;0.83;;